createdAt,value
2018-09-29T00:01:28.759Z,103253.52
2018-09-29T00:03:57.547Z,103260.48
2018-09-29T00:06:25.864Z,103260.03
2018-09-29T00:08:54.190Z,103261.34
2018-09-29T00:11:22.534Z,103261.79
2018-09-29T00:13:51.131Z,103263.11
2018-09-29T00:16:19.457Z,103266.16
2018-09-29T00:18:47.741Z,103255.30
2018-09-29T00:21:16.064Z,103264.01
2018-09-29T00:23:44.416Z,103266.14
2018-09-29T00:26:12.730Z,103263.14
2018-09-29T00:28:40.997Z,103257.52
2018-09-29T00:31:09.338Z,103253.16
2018-09-29T00:33:38.323Z,103255.77
2018-09-29T00:36:06.639Z,103260.96
2018-09-29T00:38:34.933Z,103253.56
2018-09-29T00:41:03.536Z,103262.69
2018-09-29T00:43:32.058Z,103255.36
2018-09-29T00:46:00.372Z,103257.13
2018-09-29T00:48:28.752Z,103255.38
2018-09-29T00:50:57.074Z,103257.58
2018-09-29T00:53:25.459Z,103262.36
2018-09-29T00:55:53.761Z,103257.58
2018-09-29T00:58:22.081Z,103263.67
2018-09-29T01:00:50.386Z,103269.36
2018-09-29T01:03:18.744Z,103263.67
2018-09-29T01:05:47.041Z,103262.78
2018-09-29T01:08:15.335Z,103257.19
2018-09-29T01:10:43.803Z,103258.91
2018-09-29T01:13:12.161Z,103254.99
2018-09-29T01:15:40.608Z,103261.09
2018-09-29T01:18:08.912Z,103261.98
2018-09-29T01:20:37.550Z,103255.89
2018-09-29T01:23:05.876Z,103258.91
2018-09-29T01:25:34.192Z,103261.13
2018-09-29T01:28:02.535Z,103258.48
2018-09-29T01:30:31.108Z,103252.00
2018-09-29T01:32:59.443Z,103260.24
2018-09-29T01:35:27.733Z,103250.66
2018-09-29T01:37:56.031Z,103249.39
2018-09-29T01:40:24.374Z,103254.63
2018-09-29T01:42:52.731Z,103253.79
2018-09-29T01:45:21.196Z,103254.19
2018-09-29T01:47:49.678Z,103249.42
2018-09-29T01:50:18.055Z,103246.86
2018-09-29T01:52:46.355Z,103251.59
2018-09-29T01:55:14.635Z,103247.25
2018-09-29T01:57:43.302Z,103243.35
2018-09-29T02:00:11.682Z,103241.18
2018-09-29T02:02:40.178Z,103241.62
2018-09-29T02:05:08.487Z,103238.58
2018-09-29T02:07:36.985Z,103238.12
2018-09-29T02:10:05.449Z,103238.16
2018-09-29T02:12:33.958Z,103234.28
2018-09-29T02:15:02.368Z,103221.20
2018-09-29T02:17:30.682Z,103228.61
2018-09-29T02:19:59.095Z,103237.33
2018-09-29T02:22:27.394Z,103240.80
2018-09-29T02:24:55.935Z,103241.26
2018-09-29T02:27:24.202Z,103240.39
2018-09-29T02:29:52.519Z,103232.98
2018-09-29T02:32:21.084Z,103231.28
2018-09-29T02:34:49.626Z,103228.26
2018-09-29T02:37:18.194Z,103223.47
2018-09-29T02:39:46.830Z,103226.92
2018-09-29T02:42:15.409Z,103226.05
2018-09-29T02:44:43.931Z,103215.19
2018-09-29T02:47:12.645Z,103219.13
2018-09-29T02:49:41.186Z,103227.38
2018-09-29T02:52:09.732Z,103224.77
2018-09-29T02:54:38.407Z,103227.80
2018-09-29T02:57:07.065Z,103226.05
2018-09-29T02:59:35.666Z,103223.05
2018-09-29T03:02:04.246Z,103225.64
2018-09-29T03:04:33.137Z,103226.06
2018-09-29T03:07:01.849Z,103227.81
2018-09-29T03:09:30.087Z,103226.09
2018-09-29T03:11:58.898Z,103225.63
2018-09-29T03:14:27.537Z,103226.94
2018-09-29T03:16:56.096Z,103222.17
2018-09-29T03:19:24.927Z,103221.75
2018-09-29T03:21:53.659Z,103223.48
2018-09-29T03:24:22.190Z,103218.29
2018-09-29T03:26:50.751Z,103216.56
2018-09-29T03:29:19.309Z,103217.86
2018-09-29T03:31:48.058Z,103218.70
2018-09-29T03:34:16.493Z,103223.05
2018-09-29T03:36:45.025Z,103219.15
2018-09-29T03:39:13.250Z,103219.14
2018-09-29T03:41:41.920Z,103222.63
2018-09-29T03:44:10.728Z,103226.52
2018-09-29T03:46:39.396Z,103220.46
2018-09-29T03:49:08.039Z,103213.50
2018-09-29T03:51:36.612Z,103216.14
2018-09-29T03:54:05.237Z,103210.92
2018-09-29T03:56:33.822Z,103216.59
2018-09-29T03:59:02.572Z,103209.20
2018-09-29T04:01:31.172Z,103210.93
2018-09-29T04:03:59.931Z,103212.66
2018-09-29T04:06:28.752Z,103209.18
2018-09-29T04:08:57.382Z,103211.80
2018-09-29T04:11:25.912Z,103214.41
2018-09-29T04:13:54.680Z,103207.01
2018-09-29T04:16:23.209Z,103202.27
2018-09-29T04:18:51.873Z,103205.73
2018-09-29T04:21:20.582Z,103208.76
2018-09-29T04:23:49.272Z,103210.95
2018-09-29T04:26:17.945Z,103208.32
2018-09-29T04:28:46.667Z,103218.31
2018-09-29T04:31:15.454Z,103213.55
2018-09-29T04:33:44.064Z,103215.28
2018-09-29T04:36:12.829Z,103209.23
2018-09-29T04:38:41.619Z,103214.84
2018-09-29T04:41:10.170Z,103221.78
2018-09-29T04:43:38.802Z,103217.04
2018-09-29T04:46:07.369Z,103215.72
2018-09-29T04:48:35.875Z,103223.55
2018-09-29T04:51:04.675Z,103217.47
2018-09-29T04:53:32.894Z,103216.59
2018-09-29T04:56:01.499Z,103214.00
2018-09-29T04:58:30.081Z,103213.55
2018-09-29T05:00:58.616Z,103214.44
2018-09-29T05:03:27.156Z,103213.13
2018-09-29T05:05:55.760Z,103209.64
2018-09-29T05:08:24.325Z,103204.88
2018-09-29T05:10:53.029Z,103213.13
2018-09-29T05:13:21.631Z,103206.18
2018-09-29T05:15:50.205Z,103213.13
2018-09-29T05:18:18.965Z,103207.48
2018-09-29T05:20:47.527Z,103210.53
2018-09-29T05:23:15.792Z,103209.65
2018-09-29T05:25:44.388Z,103207.48
2018-09-29T05:28:12.979Z,103205.73
2018-09-29T05:30:41.946Z,103208.78
2018-09-29T05:33:10.523Z,103208.36
2018-09-29T05:35:39.266Z,103212.27
2018-09-29T05:38:08.227Z,103202.27
2018-09-29T05:40:36.815Z,103204.89
2018-09-29T05:43:05.423Z,103203.16
2018-09-29T05:45:34.031Z,103200.12
2018-09-29T05:48:02.805Z,103203.59
2018-09-29T05:50:31.361Z,103203.58
2018-09-29T05:52:59.688Z,103205.74
2018-09-29T05:55:28.536Z,103200.53
2018-09-29T05:57:57.181Z,103201.83
2018-09-29T06:00:25.849Z,103207.93
2018-09-29T06:02:54.743Z,103209.23
2018-09-29T06:05:23.765Z,103203.58
2018-09-29T06:07:54.285Z,103203.16
2018-09-29T06:10:23.344Z,103203.58
2018-09-29T06:12:52.229Z,103200.09
2018-09-29T06:15:21.049Z,103205.28
2018-09-29T06:17:50.551Z,103204.39
2018-09-29T06:20:20.007Z,103209.60
2018-09-29T06:22:49.930Z,103210.47
2018-09-29T06:25:18.917Z,103212.63
2018-09-29T06:27:47.842Z,103215.23
2018-09-29T06:30:18.208Z,103216.58
2018-09-29T06:32:48.951Z,103215.67
2018-09-29T06:35:19.068Z,103215.22
2018-09-29T06:37:53.443Z,103221.29
2018-09-29T06:40:22.921Z,103216.04
2018-09-29T06:42:53.374Z,103229.06
2018-09-29T06:45:22.077Z,103221.22
2018-09-29T06:50:24.583Z,103212.22
2018-09-29T06:52:53.273Z,103215.25
2018-09-29T06:55:22.079Z,103219.96
2018-09-29T06:57:51.797Z,103218.20
2018-09-29T07:00:21.535Z,103222.06
2018-09-29T07:02:50.340Z,103223.73
2018-09-29T07:05:19.428Z,103221.93
2018-09-29T07:07:48.580Z,103218.39
2018-09-29T07:10:17.266Z,103220.97
2018-09-29T07:12:46.069Z,103214.83
2018-09-29T07:15:14.767Z,103218.34
2018-09-29T07:17:43.525Z,103212.63
2018-09-29T07:20:13.095Z,103209.13
2018-09-29T07:22:41.865Z,103203.81
2018-09-29T07:25:10.623Z,103210.75
2018-09-29T07:27:39.394Z,103205.41
2018-09-29T07:30:08.252Z,103197.89
2018-09-29T07:32:37.222Z,103202.17
2018-09-29T07:35:06.369Z,103203.42
2018-09-29T07:37:36.152Z,103201.61
2018-09-29T07:40:05.411Z,103198.89
2018-09-29T07:42:35.669Z,103194.12
2018-09-29T07:45:05.179Z,103198.27
2018-09-29T07:47:34.475Z,103195.52
2018-09-29T07:50:04.199Z,103193.59
2018-09-29T07:52:33.087Z,103187.17
2018-09-29T07:55:01.983Z,103191.16
2018-09-29T07:57:30.982Z,103194.56
2018-09-29T07:59:59.968Z,103193.52
2018-09-29T08:02:29.912Z,103195.64
2018-09-29T08:04:58.897Z,103191.78
2018-09-29T08:07:28.370Z,103188.74
2018-09-29T08:09:57.194Z,103187.85
2018-09-29T08:12:26.295Z,103187.00
2018-09-29T08:14:55.095Z,103192.42
2018-09-29T08:17:25.515Z,103190.66
2018-09-29T08:19:54.402Z,103187.12
2018-09-29T08:22:25.561Z,103184.68
2018-09-29T08:24:56.611Z,103186.55
2018-09-29T08:27:25.286Z,103189.81
2018-09-29T08:29:54.031Z,103187.64
2018-09-29T08:32:23.460Z,103193.03
2018-09-29T08:34:52.232Z,103187.23
2018-09-29T08:37:21.032Z,103198.93
2018-09-29T08:39:50.036Z,103193.44
2018-09-29T08:42:18.823Z,103192.32
2018-09-29T08:44:47.615Z,103198.33
2018-09-29T08:47:17.110Z,103195.70
2018-09-29T08:49:45.877Z,103199.41
2018-09-29T08:52:14.760Z,103198.75
2018-09-29T08:54:43.651Z,103192.31
2018-09-29T08:57:12.441Z,103191.96
2018-09-29T08:59:41.209Z,103185.91
2018-09-29T09:02:10.009Z,103182.78
2018-09-29T09:04:38.848Z,103181.12
2018-09-29T09:07:07.496Z,103175.09
2018-09-29T09:09:36.188Z,103176.11
2018-09-29T09:12:05.152Z,103174.87
2018-09-29T09:14:33.735Z,103173.23
2018-09-29T09:17:02.603Z,103167.33
2018-09-29T09:19:31.362Z,103168.48
2018-09-29T09:22:00.125Z,103159.47
2018-09-29T09:24:28.928Z,103152.86
2018-09-29T09:26:57.546Z,103150.98
2018-09-29T09:29:26.304Z,103144.66
2018-09-29T09:31:54.930Z,103141.42
2018-09-29T09:34:23.758Z,103138.26
2018-09-29T09:36:52.491Z,103132.61
2018-09-29T09:39:20.803Z,103135.49
2018-09-29T09:41:49.722Z,103133.38
2018-09-29T09:44:18.459Z,103131.09
2018-09-29T09:46:47.092Z,103124.55
2018-09-29T09:49:15.720Z,103127.25
2018-09-29T09:51:44.420Z,103123.16
2018-09-29T09:54:13.132Z,103112.98
2018-09-29T09:56:42.306Z,103110.44
2018-09-29T09:59:10.912Z,103112.62
2018-09-29T10:01:45.344Z,103105.61
2018-09-29T10:04:14.036Z,103097.86
2018-09-29T10:06:42.776Z,103092.13
2018-09-29T10:09:12.692Z,103083.48
2018-09-29T10:11:42.483Z,103086.00
2018-09-29T10:14:11.115Z,103080.84
2018-09-29T10:16:39.771Z,103083.91
2018-09-29T10:19:08.379Z,103072.86
2018-09-29T10:21:37.697Z,103075.69
2018-09-29T10:24:06.568Z,103074.89
2018-09-29T10:26:35.372Z,103068.13
2018-09-29T10:29:04.122Z,103063.11
2018-09-29T10:31:32.956Z,103066.80
2018-09-29T10:34:01.755Z,103072.88
2018-09-29T10:36:31.284Z,103063.59
2018-09-29T10:39:00.957Z,103061.72
2018-09-29T10:41:29.817Z,103062.09
2018-09-29T10:43:59.519Z,103062.02
2018-09-29T10:46:34.430Z,103062.10
2018-09-29T10:49:04.160Z,103062.09
2018-09-29T10:51:34.145Z,103058.56
2018-09-29T10:54:08.511Z,103046.84
2018-09-29T10:59:16.949Z,103047.20
2018-09-29T11:01:46.982Z,103046.84
2018-09-29T11:04:16.033Z,103045.56
2018-09-29T11:06:45.764Z,103034.13
2018-09-29T11:09:14.636Z,103032.48
2018-09-29T11:11:43.648Z,103029.30
2018-09-29T11:14:13.288Z,103019.89
2018-09-29T11:16:43.235Z,103015.08
2018-09-29T11:19:12.225Z,103015.48
2018-09-29T11:21:41.583Z,103010.09
2018-09-29T11:24:10.622Z,103005.80
2018-09-29T11:26:40.125Z,103002.10
2018-09-29T11:29:09.186Z,103003.01
2018-09-29T11:31:38.305Z,102995.27
2018-09-29T11:34:07.456Z,102987.87
2018-09-29T11:36:37.146Z,102985.21
2018-09-29T11:39:10.201Z,102983.34
2018-09-29T11:41:39.780Z,102982.00
2018-09-29T11:44:09.326Z,102970.66
2018-09-29T11:46:38.433Z,102971.64
2018-09-29T11:49:07.389Z,102964.30
2018-09-29T11:51:36.242Z,102960.50
2018-09-29T11:54:05.199Z,102958.04
2018-09-29T11:56:34.008Z,102951.87
2018-09-29T11:59:03.617Z,102943.42
2018-09-29T12:01:32.684Z,102935.94
2018-09-29T12:04:01.912Z,102934.39
2018-09-29T12:06:31.901Z,102932.75
2018-09-29T12:09:01.740Z,102921.64
2018-09-29T12:11:30.743Z,102915.45
2018-09-29T12:13:59.786Z,102913.49
2018-09-29T12:16:28.730Z,102913.66
2018-09-29T12:18:57.770Z,102915.34
2018-09-29T12:21:26.908Z,102906.55
2018-09-29T12:23:56.011Z,102901.31
2018-09-29T12:26:24.983Z,102891.80
2018-09-29T12:31:27.241Z,102896.23
2018-09-29T12:33:56.133Z,102895.38
2018-09-29T12:36:25.227Z,102893.22
2018-09-29T12:38:54.334Z,102881.78
2018-09-29T12:41:23.598Z,102876.38
2018-09-29T12:43:52.693Z,102866.61
2018-09-29T12:46:23.766Z,102862.00
2018-09-29T12:48:53.444Z,102853.41
2018-09-29T12:51:25.388Z,102859.50
2018-09-29T12:53:55.825Z,102848.64
2018-09-29T12:56:28.532Z,102841.70
2018-09-29T12:58:59.022Z,102834.63
2018-09-29T13:01:31.699Z,102834.64
2018-09-29T13:04:02.820Z,102822.94
2018-09-29T13:06:37.038Z,102817.23
2018-09-29T13:09:09.921Z,102814.38
2018-09-29T13:11:41.065Z,102813.95
2018-09-29T13:14:11.064Z,102802.59
2018-09-29T13:16:40.118Z,102797.20
2018-09-29T13:19:12.427Z,102802.52
2018-09-29T13:21:44.329Z,102799.06
2018-09-29T13:24:13.925Z,102796.02
2018-09-29T13:26:42.773Z,102796.44
2018-09-29T13:29:11.981Z,102801.77
2018-09-29T13:31:41.192Z,102794.69
2018-09-29T13:34:15.333Z,102790.41
2018-09-29T13:36:44.403Z,102780.84
2018-09-29T13:39:13.401Z,102784.08
2018-09-29T13:41:42.856Z,102774.77
2018-09-29T13:44:11.682Z,102771.53
2018-09-29T13:46:40.936Z,102766.30
2018-09-29T13:49:10.677Z,102757.44
2018-09-29T13:51:39.555Z,102758.66
2018-09-29T13:54:08.988Z,102754.39
2018-09-29T13:56:37.975Z,102742.83
2018-09-29T13:59:07.828Z,102748.41
2018-09-29T14:01:38.296Z,102753.75
2018-09-29T14:04:09.036Z,102743.79
2018-09-29T14:06:39.815Z,102738.27
2018-09-29T14:09:11.924Z,102733.73
2018-09-29T14:11:42.306Z,102731.29
2018-09-29T14:14:13.998Z,102732.40
2018-09-29T14:16:46.910Z,102731.86
2018-09-29T14:21:50.693Z,102714.02
2018-09-29T14:24:21.153Z,102708.98
2018-09-29T14:26:50.286Z,102711.00
2018-09-29T14:29:21.651Z,102709.20
2018-09-29T14:31:53.918Z,102707.89
2018-09-29T14:34:22.883Z,102702.84
2018-09-29T14:36:51.874Z,102693.35
2018-09-29T14:39:21.891Z,102692.25
2018-09-29T14:41:53.093Z,102690.53
2018-09-29T14:44:22.982Z,102694.70
2018-09-29T14:46:51.852Z,102683.95
2018-09-29T14:49:21.484Z,102681.98
2018-09-29T14:51:50.440Z,102686.06
2018-09-29T14:54:23.277Z,102681.47
2018-09-29T14:56:52.928Z,102674.76
2018-09-29T14:59:22.884Z,102671.39
2018-09-29T15:01:52.028Z,102674.55
2018-09-29T15:04:22.479Z,102660.61
2018-09-29T15:06:51.543Z,102659.70
2018-09-29T15:09:20.990Z,102655.59
2018-09-29T15:11:50.515Z,102646.97
2018-09-29T15:14:21.735Z,102646.48
2018-09-29T15:16:50.783Z,102644.19
2018-09-29T15:19:19.815Z,102644.16
2018-09-29T15:21:49.808Z,102644.80
2018-09-29T15:24:19.231Z,102637.23
2018-09-29T15:26:48.482Z,102631.48
2018-09-29T15:29:17.354Z,102626.15
2018-09-29T15:31:47.272Z,102618.32
2018-09-29T15:34:17.136Z,102617.84
2018-09-29T15:36:47.890Z,102619.00
2018-09-29T15:39:18.968Z,102618.09
2018-09-29T15:41:50.015Z,102612.25
2018-09-29T15:44:18.940Z,102605.34
2018-09-29T15:46:50.220Z,102601.11
2018-09-29T15:49:20.234Z,102600.29
2018-09-29T15:51:50.397Z,102598.66
2018-09-29T15:54:20.862Z,102594.12
2018-09-29T15:56:50.208Z,102594.31
2018-09-29T15:59:19.643Z,102587.11
2018-09-29T16:01:49.308Z,102586.00
2018-09-29T16:04:19.743Z,102585.33
2018-09-29T16:06:49.855Z,102571.86
2018-09-29T16:09:19.869Z,102571.74
2018-09-29T16:11:50.509Z,102581.45
2018-09-29T16:14:22.414Z,102567.53
2018-09-29T16:16:54.096Z,102572.51
2018-09-29T16:19:23.506Z,102572.48
2018-09-29T16:22:00.037Z,102566.56
2018-09-29T16:24:31.538Z,102564.33
2018-09-29T16:27:01.212Z,102567.26
2018-09-29T16:29:31.187Z,102571.81
2018-09-29T16:32:01.453Z,102570.22
2018-09-29T16:34:32.354Z,102566.71
2018-09-29T16:37:02.117Z,102566.55
2018-09-29T16:39:33.944Z,102562.00
2018-09-29T16:42:02.952Z,102559.55
2018-09-29T16:44:33.441Z,102558.03
2018-09-29T16:47:03.776Z,102549.41
2018-09-29T16:49:32.816Z,102549.97
2018-09-29T16:52:02.703Z,102545.64
2018-09-29T16:54:32.296Z,102550.65
2018-09-29T16:57:02.426Z,102551.67
2018-09-29T16:59:33.185Z,102542.95
2018-09-29T17:02:02.014Z,102551.25
2018-09-29T17:04:30.780Z,102549.55
2018-09-29T17:07:00.915Z,102551.06
2018-09-29T17:09:29.810Z,102549.52
2018-09-29T17:11:59.700Z,102545.25
2018-09-29T17:14:28.519Z,102548.21
2018-09-29T17:16:57.223Z,102551.08
2018-09-29T17:19:25.983Z,102549.14
2018-09-29T17:21:54.638Z,102544.07
2018-09-29T17:24:23.491Z,102537.42
2018-09-29T17:26:52.207Z,102537.86
2018-09-29T17:29:21.008Z,102537.64
2018-09-29T17:31:49.815Z,102543.69
2018-09-29T17:34:18.837Z,102537.09
2018-09-29T17:36:47.896Z,102545.48
2018-09-29T17:39:16.603Z,102547.19
2018-09-29T17:41:45.371Z,102544.56
2018-09-29T17:44:14.058Z,102539.67
2018-09-29T17:46:42.723Z,102542.37
2018-09-29T17:49:11.487Z,102542.20
2018-09-29T17:51:40.258Z,102540.16
2018-09-29T17:54:09.164Z,102541.19
2018-09-29T17:56:38.280Z,102538.09
2018-09-29T17:59:07.307Z,102538.36
2018-09-29T18:01:36.887Z,102533.72
2018-09-29T18:04:07.129Z,102534.80
2018-09-29T18:06:35.933Z,102534.83
2018-09-29T18:09:07.557Z,102531.37
2018-09-29T18:11:36.746Z,102526.66
2018-09-29T18:14:05.700Z,102523.52
2018-09-29T18:16:34.517Z,102522.88
2018-09-29T18:19:03.502Z,102526.80
2018-09-29T18:21:32.970Z,102526.68
2018-09-29T18:24:02.632Z,102526.54
2018-09-29T18:26:32.352Z,102529.41
2018-09-29T18:29:01.676Z,102525.39
2018-09-29T18:31:30.351Z,102531.81
2018-09-29T18:33:59.122Z,102539.84
2018-09-29T18:36:28.051Z,102533.34
2018-09-29T18:38:56.982Z,102536.55
2018-09-29T18:41:25.763Z,102534.41
2018-09-29T18:43:55.153Z,102537.09
2018-09-29T18:46:23.903Z,102542.39
2018-09-29T18:48:52.671Z,102542.23
2018-09-29T18:51:21.384Z,102540.65
2018-09-29T18:53:50.229Z,102539.23
2018-09-29T18:56:19.174Z,102546.89
2018-09-29T18:58:47.828Z,102538.34
2018-09-29T19:01:18.257Z,102541.92
2018-09-29T19:03:48.226Z,102537.57
2018-09-29T19:06:17.678Z,102540.35
2018-09-29T19:08:46.378Z,102547.79
2018-09-29T19:11:15.152Z,102543.91
2018-09-29T19:13:43.883Z,102543.38
2018-09-29T19:16:13.469Z,102534.76
2018-09-29T19:18:43.266Z,102539.78
2018-09-29T19:21:12.101Z,102539.83
2018-09-29T19:23:40.702Z,102539.83
2018-09-29T19:26:09.857Z,102538.10
2018-09-29T19:28:39.142Z,102538.29
2018-09-29T19:31:07.910Z,102539.75
2018-09-29T19:33:36.610Z,102541.00
2018-09-29T19:36:05.441Z,102535.63
2018-09-29T19:38:34.176Z,102532.16
2018-09-29T19:41:03.063Z,102534.23
2018-09-29T19:43:31.637Z,102539.14
2018-09-29T19:46:00.303Z,102531.70
2018-09-29T19:48:29.672Z,102532.77
2018-09-29T19:50:58.547Z,102534.79
2018-09-29T19:53:27.235Z,102535.40
2018-09-29T19:55:55.892Z,102533.41
2018-09-29T19:58:24.559Z,102534.78
2018-09-29T20:00:53.443Z,102532.12
2018-09-29T20:03:22.287Z,102526.59
2018-09-29T20:05:51.865Z,102532.89
2018-09-29T20:08:20.755Z,102531.12
2018-09-29T20:10:49.747Z,102530.31
2018-09-29T20:13:18.492Z,102530.45
2018-09-29T20:15:47.188Z,102523.85
2018-09-29T20:18:16.062Z,102524.41
2018-09-29T20:20:45.624Z,102514.91
2018-09-29T20:23:14.238Z,102519.81
2018-09-29T20:25:43.255Z,102519.56
2018-09-29T20:28:12.001Z,102516.64
2018-09-29T20:30:41.092Z,102513.65
2018-09-29T20:33:09.861Z,102508.55
2018-09-29T20:35:38.515Z,102513.27
2018-09-29T20:38:07.362Z,102503.23
2018-09-29T20:40:36.494Z,102499.30
2018-09-29T20:43:05.247Z,102495.84
2018-09-29T20:45:33.975Z,102499.56
2018-09-29T20:48:02.820Z,102500.41
2018-09-29T20:50:32.088Z,102496.51
2018-09-29T20:53:00.960Z,102492.09
2018-09-29T20:55:29.757Z,102488.05
2018-09-29T20:57:58.615Z,102484.66
2018-09-29T21:00:27.405Z,102474.33
2018-09-29T21:02:56.110Z,102480.48
2018-09-29T21:05:24.815Z,102481.36
2018-09-29T21:07:53.434Z,102477.73
2018-09-29T21:10:22.025Z,102470.48
2018-09-29T21:12:50.895Z,102467.38
2018-09-29T21:15:19.487Z,102460.81
2018-09-29T21:17:48.038Z,102462.92
2018-09-29T21:20:16.748Z,102465.53
2018-09-29T21:22:45.313Z,102458.70
2018-09-29T21:25:13.880Z,102457.47
2018-09-29T21:27:42.423Z,102449.16
2018-09-29T21:30:10.988Z,102449.24
2018-09-29T21:32:39.746Z,102449.24
2018-09-29T21:35:08.343Z,102448.40
2018-09-29T21:37:37.165Z,102440.98
2018-09-29T21:40:07.014Z,102440.64
2018-09-29T21:42:35.843Z,102437.37
2018-09-29T21:45:05.082Z,102436.41
2018-09-29T21:47:34.179Z,102429.87
2018-09-29T21:50:04.951Z,102430.27
2018-09-29T21:52:34.125Z,102418.97
2018-09-29T21:55:02.982Z,102410.78
2018-09-29T21:57:32.194Z,102408.09
2018-09-29T22:00:01.121Z,102409.52
2018-09-29T22:02:31.092Z,102407.05
2018-09-29T22:04:59.996Z,102407.52
2018-09-29T22:07:28.915Z,102404.05
2018-09-29T22:09:58.925Z,102397.18
2018-09-29T22:12:27.756Z,102403.67
2018-09-29T22:14:56.619Z,102402.37
2018-09-29T22:17:25.489Z,102401.17
2018-09-29T22:19:54.901Z,102395.59
2018-09-29T22:22:23.846Z,102397.79
2018-09-29T22:24:52.674Z,102397.05
2018-09-29T22:27:21.643Z,102396.09
2018-09-29T22:29:50.530Z,102395.36
2018-09-29T22:32:20.886Z,102387.06
2018-09-29T22:34:49.746Z,102393.25
2018-09-29T22:37:18.688Z,102393.73
2018-09-29T22:39:48.177Z,102391.20
2018-09-29T22:42:18.046Z,102387.47
2018-09-29T22:44:47.014Z,102389.90
2018-09-29T22:47:15.941Z,102383.09
2018-09-29T22:49:44.823Z,102378.78
2018-09-29T22:52:13.786Z,102379.03
2018-09-29T22:54:45.029Z,102376.25
2018-09-29T22:57:14.878Z,102381.97
2018-09-29T22:59:44.088Z,102375.61
2018-09-29T23:02:13.803Z,102376.81
2018-09-29T23:04:43.578Z,102374.13
2018-09-29T23:07:13.467Z,102371.03
2018-09-29T23:09:42.252Z,102372.37
2018-09-29T23:12:12.176Z,102369.91
2018-09-29T23:14:41.029Z,102363.34
2018-09-29T23:17:10.146Z,102365.14
2018-09-29T23:19:38.880Z,102363.09
2018-09-29T23:22:07.987Z,102353.61
2018-09-29T23:24:39.721Z,102355.41
2018-09-29T23:27:08.605Z,102344.64
2018-09-29T23:29:37.460Z,102346.55
2018-09-29T23:32:07.864Z,102351.76
2018-09-29T23:34:36.755Z,102346.64
2018-09-29T23:37:05.647Z,102345.30
2018-09-29T23:39:35.585Z,102347.06
2018-09-29T23:42:05.359Z,102347.03
2018-09-29T23:44:35.368Z,102352.08
2018-09-29T23:47:05.639Z,102345.23
2018-09-29T23:49:34.668Z,102337.45
2018-09-29T23:52:04.287Z,102331.09
2018-09-29T23:54:33.135Z,102329.89
2018-09-29T23:57:02.004Z,102330.80
2018-09-29T23:59:30.999Z,102334.65
